createdAt,value
2017-07-09T00:00:55.799Z,70.31
2017-07-09T00:01:52.059Z,70.35
2017-07-09T00:02:48.314Z,70.38
2017-07-09T00:03:44.566Z,70.49
2017-07-09T00:04:40.811Z,70.52
2017-07-09T00:05:37.066Z,70.53
2017-07-09T00:06:33.306Z,70.55
2017-07-09T00:07:29.542Z,70.58
2017-07-09T00:08:25.784Z,70.63
2017-07-09T00:09:22.048Z,70.64
2017-07-09T00:10:18.296Z,70.68
2017-07-09T00:11:14.567Z,70.77
2017-07-09T00:12:10.822Z,70.87
2017-07-09T00:13:07.066Z,70.95
2017-07-09T00:14:03.306Z,70.98
2017-07-09T00:14:59.551Z,71.06
2017-07-09T00:15:55.793Z,71.15
2017-07-09T00:16:52.064Z,71.25
2017-07-09T00:17:48.323Z,71.30
2017-07-09T00:18:44.571Z,71.38
2017-07-09T00:19:40.834Z,71.42
2017-07-09T00:20:37.088Z,71.45
2017-07-09T00:21:33.346Z,71.47
2017-07-09T00:22:29.594Z,71.50
2017-07-09T00:23:25.838Z,71.52
2017-07-09T00:24:22.084Z,71.54
2017-07-09T00:25:18.350Z,71.56
2017-07-09T00:26:14.610Z,71.59
2017-07-09T00:27:10.875Z,71.62
2017-07-09T00:28:07.110Z,71.62
2017-07-09T00:29:03.350Z,71.65
2017-07-09T00:29:59.595Z,71.68
2017-07-09T00:30:55.839Z,71.73
2017-07-09T00:31:52.102Z,71.75
2017-07-09T00:32:48.347Z,71.78
2017-07-09T00:33:44.591Z,71.82
2017-07-09T00:34:40.834Z,71.87
2017-07-09T00:35:37.074Z,71.94
2017-07-09T00:36:33.326Z,72.02
2017-07-09T00:37:29.599Z,72.07
2017-07-09T00:38:25.854Z,72.21
2017-07-09T00:39:22.110Z,72.24
2017-07-09T00:40:18.347Z,72.32
2017-07-09T00:41:14.595Z,72.34
2017-07-09T00:42:10.855Z,72.37
2017-07-09T00:43:07.109Z,72.44
2017-07-09T00:44:03.346Z,72.52
2017-07-09T00:44:59.599Z,72.59
2017-07-09T00:45:55.838Z,72.69
2017-07-09T00:46:52.078Z,72.75
2017-07-09T00:47:48.343Z,72.80
2017-07-09T00:48:44.591Z,72.81
2017-07-09T00:49:40.834Z,72.83
2017-07-09T00:50:37.088Z,72.85
2017-07-09T00:51:33.322Z,72.91
2017-07-09T00:52:29.568Z,72.97
2017-07-09T00:53:25.831Z,73.00
2017-07-09T00:54:22.070Z,73.04
2017-07-09T00:55:18.315Z,73.08
2017-07-09T00:56:14.559Z,73.12
2017-07-09T00:57:10.803Z,73.16
2017-07-09T00:58:07.047Z,73.19
2017-07-09T00:59:03.322Z,73.21
2017-07-09T00:59:59.577Z,73.23
2017-07-09T01:00:55.820Z,73.30
2017-07-09T01:01:52.067Z,73.36
2017-07-09T01:02:48.306Z,73.45
2017-07-09T01:03:44.579Z,73.50
2017-07-09T01:04:40.820Z,73.56
2017-07-09T01:05:37.059Z,73.64
2017-07-09T01:06:33.308Z,73.69
2017-07-09T01:07:29.559Z,73.73
2017-07-09T01:08:25.798Z,73.78
2017-07-09T01:09:22.076Z,73.79
2017-07-09T01:10:18.316Z,73.77
2017-07-09T01:11:14.558Z,73.78
2017-07-09T01:12:10.798Z,73.81
2017-07-09T01:13:07.038Z,73.84
2017-07-09T01:14:03.311Z,73.89
2017-07-09T01:14:59.578Z,73.90
2017-07-09T01:15:55.819Z,73.96
2017-07-09T01:16:52.067Z,74.00
2017-07-09T01:17:48.310Z,74.05
2017-07-09T01:18:44.547Z,74.09
2017-07-09T01:19:40.815Z,74.17
2017-07-09T01:20:37.078Z,74.20
2017-07-09T01:21:33.318Z,74.24
2017-07-09T01:22:29.554Z,74.31
2017-07-09T01:23:25.799Z,74.33
2017-07-09T01:24:22.058Z,74.35
2017-07-09T01:25:18.303Z,74.37
2017-07-09T01:26:14.551Z,74.38
2017-07-09T01:27:10.791Z,74.40
2017-07-09T01:28:07.032Z,74.40
2017-07-09T01:29:03.278Z,74.40
2017-07-09T01:29:59.542Z,74.41
2017-07-09T01:30:55.766Z,74.44
2017-07-09T01:31:52.002Z,74.43
2017-07-09T01:32:48.247Z,74.46
2017-07-09T01:33:44.494Z,74.52
2017-07-09T01:34:40.748Z,74.53
2017-07-09T01:35:37.035Z,74.58
2017-07-09T01:36:33.291Z,74.63
2017-07-09T01:37:29.542Z,74.66
2017-07-09T01:38:25.794Z,74.66
2017-07-09T01:39:22.048Z,74.69
2017-07-09T01:40:18.326Z,74.74
2017-07-09T01:41:14.598Z,74.77
2017-07-09T01:42:10.839Z,74.80
2017-07-09T01:43:07.087Z,74.80
2017-07-09T01:44:03.340Z,74.85
2017-07-09T01:44:59.594Z,74.88
2017-07-09T01:45:58.499Z,74.92
2017-07-09T01:46:54.757Z,74.96
2017-07-09T01:47:51.012Z,75.02
2017-07-09T01:48:47.256Z,75.07
2017-07-09T01:49:43.500Z,75.08
2017-07-09T01:50:39.770Z,75.11
2017-07-09T01:51:36.019Z,75.15
2017-07-09T01:52:32.269Z,75.19
2017-07-09T01:53:28.514Z,75.23
2017-07-09T01:54:24.764Z,75.28
2017-07-09T01:55:21.007Z,75.33
2017-07-09T01:56:17.267Z,75.37
2017-07-09T01:57:13.522Z,75.40
2017-07-09T01:58:09.763Z,75.40
2017-07-09T01:59:06.019Z,75.43
2017-07-09T02:00:02.272Z,75.45
2017-07-09T02:00:58.523Z,75.48
2017-07-09T02:01:54.770Z,75.52
2017-07-09T02:02:51.018Z,75.55
2017-07-09T02:03:47.254Z,75.58
2017-07-09T02:04:43.491Z,75.62
2017-07-09T02:05:39.739Z,75.66
2017-07-09T02:06:36.006Z,75.72
2017-07-09T02:07:32.247Z,75.78
2017-07-09T02:08:28.492Z,75.81
2017-07-09T02:09:24.759Z,75.83
2017-07-09T02:10:21.026Z,75.86
2017-07-09T02:11:17.320Z,75.90
2017-07-09T02:12:13.566Z,75.96
2017-07-09T02:13:09.807Z,75.99
2017-07-09T02:14:06.060Z,76.02
2017-07-09T02:15:02.314Z,76.05
2017-07-09T02:15:58.577Z,76.04
2017-07-09T02:16:54.831Z,76.02
2017-07-09T02:17:51.083Z,76.04
2017-07-09T02:18:47.326Z,76.06
2017-07-09T02:19:43.571Z,76.06
2017-07-09T02:20:39.815Z,76.10
2017-07-09T02:21:36.056Z,76.14
2017-07-09T02:22:32.327Z,76.18
2017-07-09T02:23:28.582Z,76.19
2017-07-09T02:24:24.834Z,76.22
2017-07-09T02:25:21.087Z,76.25
2017-07-09T02:26:17.358Z,76.29
2017-07-09T02:27:13.634Z,76.32
2017-07-09T02:28:09.875Z,76.31
2017-07-09T02:29:06.171Z,76.32
2017-07-09T02:30:02.374Z,76.35
2017-07-09T02:30:58.630Z,76.35
2017-07-09T02:31:54.871Z,76.32
2017-07-09T02:32:51.146Z,76.38
2017-07-09T02:33:47.383Z,76.41
2017-07-09T02:34:43.629Z,76.44
2017-07-09T02:35:39.882Z,76.47
2017-07-09T02:36:36.123Z,76.53
2017-07-09T02:37:32.379Z,76.61
2017-07-09T02:38:28.623Z,76.69
2017-07-09T02:39:24.859Z,76.69
2017-07-09T02:40:21.116Z,76.70
2017-07-09T02:41:17.363Z,76.73
2017-07-09T02:42:13.638Z,76.78
2017-07-09T02:43:09.911Z,76.81
2017-07-09T02:44:06.146Z,76.85
2017-07-09T02:45:02.387Z,76.89
2017-07-09T02:45:58.634Z,76.90
2017-07-09T02:46:54.878Z,76.96
2017-07-09T02:47:51.134Z,76.97
2017-07-09T02:48:47.405Z,77.02
2017-07-09T02:49:43.655Z,77.04
2017-07-09T02:50:39.899Z,77.06
2017-07-09T02:51:36.140Z,77.09
2017-07-09T02:52:32.415Z,77.10
2017-07-09T02:53:28.655Z,77.11
2017-07-09T02:54:24.910Z,77.12
2017-07-09T02:55:21.146Z,77.12
2017-07-09T02:56:17.386Z,77.17
2017-07-09T02:57:13.646Z,77.25
2017-07-09T02:58:09.874Z,77.32
2017-07-09T02:59:06.139Z,77.40
2017-07-09T03:00:02.383Z,77.46
2017-07-09T03:00:58.627Z,77.49
2017-07-09T03:01:54.872Z,77.53
2017-07-09T03:02:51.144Z,77.57
2017-07-09T03:03:47.394Z,77.60
2017-07-09T03:04:43.651Z,77.64
2017-07-09T03:05:39.895Z,77.67
2017-07-09T03:06:36.134Z,77.70
2017-07-09T03:07:32.388Z,77.72
2017-07-09T03:08:28.630Z,77.76
2017-07-09T03:09:24.886Z,77.76
2017-07-09T03:10:21.123Z,77.80
2017-07-09T03:11:17.358Z,77.81
2017-07-09T03:12:13.608Z,77.82
2017-07-09T03:13:09.884Z,77.84
2017-07-09T03:14:06.159Z,77.84
2017-07-09T03:15:02.398Z,77.85
2017-07-09T03:15:58.642Z,77.89
2017-07-09T03:16:54.874Z,77.91
2017-07-09T03:17:51.137Z,77.93
2017-07-09T03:18:47.379Z,77.96
2017-07-09T03:19:43.631Z,77.99
2017-07-09T03:20:39.858Z,78.02
2017-07-09T03:21:36.098Z,78.08
2017-07-09T03:22:32.345Z,78.13
2017-07-09T03:23:28.581Z,78.18
2017-07-09T03:24:24.819Z,78.19
2017-07-09T03:25:21.063Z,78.20
2017-07-09T03:26:17.322Z,78.22
2017-07-09T03:27:13.558Z,78.21
2017-07-09T03:28:09.811Z,78.21
2017-07-09T03:29:06.061Z,78.20
2017-07-09T03:30:02.302Z,78.18
2017-07-09T03:30:58.547Z,78.21
2017-07-09T03:31:54.786Z,78.23
2017-07-09T03:32:51.023Z,78.24
2017-07-09T03:33:47.268Z,78.25
2017-07-09T03:34:43.507Z,78.26
2017-07-09T03:35:39.758Z,78.27
2017-07-09T03:36:36.018Z,78.31
2017-07-09T03:37:32.258Z,78.30
2017-07-09T03:38:28.483Z,78.32
2017-07-09T03:39:24.730Z,78.34
2017-07-09T03:40:21.019Z,78.38
2017-07-09T03:41:17.271Z,78.40
2017-07-09T03:42:13.514Z,78.41
2017-07-09T03:43:09.758Z,78.42
2017-07-09T03:44:06.091Z,78.44
2017-07-09T03:45:02.322Z,78.43
2017-07-09T03:45:58.563Z,78.43
2017-07-09T03:46:54.825Z,78.46
2017-07-09T03:47:51.067Z,78.49
2017-07-09T03:48:47.291Z,78.53
2017-07-09T03:49:43.527Z,78.62
2017-07-09T03:50:39.754Z,78.69
2017-07-09T03:51:36.022Z,78.75
2017-07-09T03:52:32.271Z,78.79
2017-07-09T03:53:28.510Z,78.86
2017-07-09T03:54:24.755Z,78.93
2017-07-09T03:55:21.010Z,78.95
2017-07-09T03:56:17.270Z,78.97
2017-07-09T03:57:13.528Z,79.04
2017-07-09T03:58:09.787Z,79.06
2017-07-09T03:59:06.019Z,79.08
2017-07-09T04:00:02.262Z,79.09
2017-07-09T04:00:58.504Z,79.08
2017-07-09T04:01:54.762Z,79.03
2017-07-09T04:02:50.995Z,79.04
2017-07-09T04:03:47.231Z,79.03
2017-07-09T04:04:43.471Z,78.99
2017-07-09T04:05:39.703Z,78.97
2017-07-09T04:06:35.938Z,78.96
2017-07-09T04:07:32.187Z,78.97
2017-07-09T04:08:28.435Z,78.96
2017-07-09T04:09:24.675Z,78.99
2017-07-09T04:10:20.917Z,79.01
2017-07-09T04:11:17.178Z,78.99
2017-07-09T04:12:13.453Z,79.01
2017-07-09T04:13:09.694Z,79.01
2017-07-09T04:14:05.930Z,79.04
2017-07-09T04:15:02.174Z,79.05
2017-07-09T04:15:58.411Z,79.06
2017-07-09T04:16:54.646Z,79.05
2017-07-09T04:17:50.926Z,79.04
2017-07-09T04:18:47.163Z,79.06
2017-07-09T04:19:43.398Z,79.08
2017-07-09T04:20:39.644Z,79.10
2017-07-09T04:21:35.882Z,79.10
2017-07-09T04:22:32.146Z,79.08
2017-07-09T04:23:28.379Z,79.05
2017-07-09T04:24:24.615Z,79.04
2017-07-09T04:25:20.855Z,79.02
2017-07-09T04:26:17.151Z,79.00
2017-07-09T04:27:13.436Z,78.97
2017-07-09T04:28:09.739Z,78.96
2017-07-09T04:29:06.035Z,78.91
2017-07-09T04:30:02.334Z,78.92
2017-07-09T04:30:58.571Z,78.88
2017-07-09T04:31:54.815Z,78.87
2017-07-09T04:32:51.055Z,78.87
2017-07-09T04:33:47.359Z,78.87
2017-07-09T04:34:43.603Z,78.88
2017-07-09T04:35:39.842Z,78.88
2017-07-09T04:36:36.087Z,78.89
2017-07-09T04:37:32.322Z,78.91
2017-07-09T04:38:28.583Z,78.91
2017-07-09T04:39:24.819Z,78.93
2017-07-09T04:40:21.074Z,78.95
2017-07-09T04:41:17.374Z,78.94
2017-07-09T04:42:13.598Z,78.93
2017-07-09T04:43:09.842Z,78.92
2017-07-09T04:44:06.107Z,78.88
2017-07-09T04:45:02.352Z,78.82
2017-07-09T04:45:58.594Z,78.76
2017-07-09T04:46:54.834Z,78.74
2017-07-09T04:47:51.058Z,78.69
2017-07-09T04:48:47.299Z,78.61
2017-07-09T04:49:43.546Z,78.57
2017-07-09T04:50:39.795Z,78.57
2017-07-09T04:51:36.037Z,78.55
2017-07-09T04:52:32.294Z,78.53
2017-07-09T04:53:28.535Z,78.53
2017-07-09T04:54:24.811Z,78.56
2017-07-09T04:55:21.051Z,78.50
2017-07-09T04:56:17.291Z,78.47
2017-07-09T04:57:13.546Z,78.44
2017-07-09T04:58:09.786Z,78.46
2017-07-09T04:59:06.022Z,78.49
2017-07-09T05:00:02.282Z,78.49
2017-07-09T05:00:58.519Z,78.50
2017-07-09T05:01:54.758Z,78.48
2017-07-09T05:02:50.995Z,78.45
2017-07-09T05:03:47.239Z,78.42
2017-07-09T05:04:43.483Z,78.37
2017-07-09T05:05:39.735Z,78.32
2017-07-09T05:06:35.998Z,78.28
2017-07-09T05:07:32.235Z,78.23
2017-07-09T05:08:28.467Z,78.24
2017-07-09T05:09:24.710Z,78.21
2017-07-09T05:10:20.966Z,78.19
2017-07-09T05:11:17.227Z,78.18
2017-07-09T05:12:13.474Z,78.17
2017-07-09T05:13:09.707Z,78.40
2017-07-09T05:14:05.959Z,77.81
2017-07-09T05:15:02.186Z,77.00
2017-07-09T05:15:58.446Z,76.29
2017-07-09T05:16:54.679Z,75.78
2017-07-09T05:17:50.926Z,75.28
2017-07-09T05:18:47.163Z,74.93
2017-07-09T05:19:43.403Z,74.60
2017-07-09T05:20:39.665Z,74.31
2017-07-09T05:21:35.895Z,74.04
2017-07-09T05:22:32.154Z,73.75
2017-07-09T05:23:28.386Z,73.52
2017-07-09T05:24:24.624Z,73.31
2017-07-09T05:25:20.862Z,73.15
2017-07-09T05:26:17.154Z,72.98
2017-07-09T05:27:13.393Z,72.82
2017-07-09T05:28:09.642Z,72.63
2017-07-09T05:29:05.887Z,72.45
2017-07-09T05:30:02.122Z,72.31
2017-07-09T05:30:58.384Z,72.20
2017-07-09T05:31:54.622Z,72.06
2017-07-09T05:32:50.866Z,71.89
2017-07-09T05:33:47.109Z,71.70
2017-07-09T05:34:43.355Z,71.53
2017-07-09T05:35:39.595Z,71.44
2017-07-09T05:36:35.859Z,71.30
2017-07-09T05:37:32.110Z,71.17
2017-07-09T05:38:28.372Z,71.11
2017-07-09T05:39:24.618Z,71.04
2017-07-09T05:40:20.851Z,71.03
2017-07-09T05:41:17.091Z,70.95
2017-07-09T05:42:13.355Z,70.78
2017-07-09T05:43:09.591Z,70.65
2017-07-09T05:44:05.833Z,70.50
2017-07-09T05:45:02.078Z,70.37
2017-07-09T05:45:58.343Z,70.25
2017-07-09T05:46:54.598Z,70.12
2017-07-09T05:47:50.860Z,70.00
2017-07-09T05:48:47.118Z,69.84
2017-07-09T05:49:43.359Z,69.71
2017-07-09T05:50:39.599Z,69.59
2017-07-09T05:51:35.891Z,69.41
2017-07-09T05:52:32.171Z,69.23
2017-07-09T05:53:28.416Z,69.06
2017-07-09T05:54:24.694Z,68.95
2017-07-09T05:55:20.927Z,68.90
2017-07-09T05:56:17.190Z,68.78
2017-07-09T05:57:13.471Z,68.66
2017-07-09T05:58:09.715Z,68.63
2017-07-09T05:59:05.959Z,68.60
2017-07-09T06:00:02.215Z,68.56
2017-07-09T06:00:58.458Z,68.54
2017-07-09T06:01:54.739Z,68.46
2017-07-09T06:02:50.983Z,68.38
2017-07-09T06:03:47.235Z,68.32
2017-07-09T06:04:43.468Z,68.26
2017-07-09T06:05:39.712Z,68.17
2017-07-09T06:06:35.973Z,68.02
2017-07-09T06:07:32.234Z,67.93
2017-07-09T06:08:28.467Z,67.84
2017-07-09T06:09:24.727Z,67.81
2017-07-09T06:10:20.967Z,67.76
2017-07-09T06:11:17.239Z,67.73
2017-07-09T06:12:13.520Z,67.66
2017-07-09T06:13:09.783Z,67.59
2017-07-09T06:14:06.031Z,67.49
2017-07-09T06:15:02.283Z,67.45
2017-07-09T06:15:58.534Z,67.34
2017-07-09T06:16:54.812Z,67.32
2017-07-09T06:17:51.059Z,67.25
2017-07-09T06:18:47.332Z,67.20
2017-07-09T06:19:43.577Z,67.13
2017-07-09T06:20:39.811Z,67.16
2017-07-09T06:21:36.072Z,67.19
2017-07-09T06:22:32.341Z,67.15
2017-07-09T06:23:28.590Z,67.17
2017-07-09T06:24:24.831Z,67.19
2017-07-09T06:25:21.083Z,67.21
2017-07-09T06:26:17.325Z,67.24
2017-07-09T06:27:13.588Z,67.18
2017-07-09T06:28:09.837Z,67.12
2017-07-09T06:29:06.098Z,67.13
2017-07-09T06:30:02.338Z,67.11
2017-07-09T06:30:58.743Z,67.05
2017-07-09T06:31:54.983Z,67.00
2017-07-09T06:32:51.255Z,66.96
2017-07-09T06:33:47.514Z,66.95
2017-07-09T06:34:43.761Z,66.92
2017-07-09T06:35:39.994Z,66.97
2017-07-09T06:36:36.236Z,67.01
2017-07-09T06:37:32.502Z,67.00
2017-07-09T06:38:28.744Z,66.92
2017-07-09T06:39:25.012Z,66.76
2017-07-09T06:40:21.263Z,66.62
2017-07-09T06:41:17.624Z,66.57
2017-07-09T06:42:13.963Z,66.50
2017-07-09T06:43:10.207Z,66.47
2017-07-09T06:44:06.488Z,66.40
2017-07-09T06:45:02.746Z,66.36
2017-07-09T06:45:59.001Z,66.30
2017-07-09T06:46:55.251Z,66.35
2017-07-09T06:47:51.507Z,66.32
2017-07-09T06:48:47.759Z,66.29
2017-07-09T06:49:44.013Z,66.13
2017-07-09T06:50:40.267Z,65.98
2017-07-09T06:51:36.514Z,65.83
2017-07-09T06:52:32.767Z,65.76
2017-07-09T06:53:29.026Z,65.68
2017-07-09T06:54:25.267Z,65.64
2017-07-09T06:55:21.526Z,65.62
2017-07-09T06:56:17.783Z,65.64
2017-07-09T06:57:14.024Z,65.64
2017-07-09T06:58:10.285Z,65.63
2017-07-09T06:59:06.538Z,65.63
2017-07-09T07:00:02.794Z,65.69
2017-07-09T07:00:59.075Z,65.75
2017-07-09T07:01:55.336Z,65.79
2017-07-09T07:02:51.606Z,65.85
2017-07-09T07:03:47.854Z,65.89
2017-07-09T07:04:44.092Z,65.84
2017-07-09T07:05:40.368Z,65.83
2017-07-09T07:06:36.611Z,65.73
2017-07-09T07:07:32.865Z,65.58
2017-07-09T07:08:29.113Z,65.40
2017-07-09T07:09:25.362Z,65.24
2017-07-09T07:10:21.620Z,65.17
2017-07-09T07:11:17.882Z,65.11
2017-07-09T07:12:14.119Z,65.06
2017-07-09T07:13:10.370Z,64.88
2017-07-09T07:14:06.622Z,64.84
2017-07-09T07:15:02.874Z,64.74
2017-07-09T07:15:59.152Z,64.63
2017-07-09T07:16:55.407Z,64.48
2017-07-09T07:17:51.654Z,64.38
2017-07-09T07:18:47.916Z,64.43
2017-07-09T07:19:44.171Z,64.44
2017-07-09T07:20:40.418Z,64.42
2017-07-09T07:21:36.703Z,64.41
2017-07-09T07:22:32.942Z,64.41
2017-07-09T07:23:29.199Z,64.46
2017-07-09T07:24:25.449Z,64.37
2017-07-09T07:25:21.702Z,64.27
2017-07-09T07:26:17.960Z,64.23
2017-07-09T07:27:14.239Z,64.14
2017-07-09T07:28:10.493Z,64.12
2017-07-09T07:29:06.746Z,64.09
2017-07-09T07:30:02.997Z,64.01
2017-07-09T07:30:59.255Z,63.87
2017-07-09T07:31:55.526Z,63.74
2017-07-09T07:32:51.766Z,63.69
2017-07-09T07:33:48.022Z,63.73
2017-07-09T07:34:44.262Z,63.73
2017-07-09T07:35:40.510Z,63.63
2017-07-09T07:36:36.759Z,63.46
2017-07-09T07:37:33.015Z,63.35
2017-07-09T07:38:29.258Z,63.30
2017-07-09T07:39:25.514Z,63.22
2017-07-09T07:40:21.762Z,63.17
2017-07-09T07:41:18.019Z,63.10
2017-07-09T07:42:14.275Z,63.01
2017-07-09T07:43:10.526Z,62.98
2017-07-09T07:44:06.786Z,62.86
2017-07-09T07:45:03.049Z,62.90
2017-07-09T07:45:59.301Z,62.92
2017-07-09T07:46:55.899Z,62.87
2017-07-09T07:47:52.152Z,62.95
2017-07-09T07:48:48.419Z,62.95
2017-07-09T07:49:44.687Z,63.02
2017-07-09T07:50:40.931Z,63.01
2017-07-09T07:51:37.178Z,62.87
2017-07-09T07:52:33.438Z,62.71
2017-07-09T07:53:29.667Z,62.62
2017-07-09T07:54:25.919Z,62.54
2017-07-09T07:55:22.166Z,62.42
2017-07-09T07:56:18.399Z,62.25
2017-07-09T07:57:14.638Z,62.21
2017-07-09T07:58:10.910Z,62.16
2017-07-09T07:59:07.166Z,62.10
2017-07-09T08:00:03.398Z,62.11
2017-07-09T08:00:59.645Z,62.11
2017-07-09T08:01:55.890Z,62.07
2017-07-09T08:02:52.147Z,61.95
2017-07-09T08:03:48.396Z,61.92
2017-07-09T08:04:44.655Z,61.95
2017-07-09T08:05:40.903Z,61.97
2017-07-09T08:06:37.138Z,61.92
2017-07-09T08:07:33.397Z,61.77
2017-07-09T08:08:29.650Z,61.63
2017-07-09T08:09:25.915Z,61.57
2017-07-09T08:10:22.170Z,61.50
2017-07-09T08:11:18.425Z,61.43
2017-07-09T08:12:14.670Z,61.35
2017-07-09T08:13:10.943Z,61.13
2017-07-09T08:14:07.208Z,60.94
2017-07-09T08:15:03.458Z,60.93
2017-07-09T08:15:59.762Z,60.95
2017-07-09T08:16:56.944Z,60.90
2017-07-09T08:17:53.182Z,60.93
2017-07-09T08:18:49.611Z,60.92
2017-07-09T08:19:45.872Z,60.83
2017-07-09T08:20:42.123Z,60.76
2017-07-09T08:21:38.362Z,60.64
2017-07-09T08:22:34.602Z,60.65
2017-07-09T08:23:30.851Z,60.73
2017-07-09T08:24:27.102Z,60.80
2017-07-09T08:25:23.359Z,60.82
2017-07-09T08:26:19.607Z,60.61
2017-07-09T08:27:15.847Z,60.45
2017-07-09T08:28:12.091Z,60.29
2017-07-09T08:29:08.338Z,60.06
2017-07-09T08:30:04.614Z,59.96
2017-07-09T08:31:00.855Z,59.90
2017-07-09T08:31:57.098Z,59.58
2017-07-09T08:32:53.363Z,59.29
2017-07-09T08:33:49.810Z,59.16
2017-07-09T08:34:46.055Z,58.95
2017-07-09T08:35:42.323Z,58.97
2017-07-09T08:36:38.563Z,58.95
2017-07-09T08:37:34.824Z,58.95
2017-07-09T08:38:31.069Z,58.97
2017-07-09T08:39:27.310Z,58.90
2017-07-09T08:40:23.563Z,58.83
2017-07-09T08:41:19.807Z,58.82
2017-07-09T08:42:16.055Z,58.75
2017-07-09T08:43:12.299Z,58.70
2017-07-09T08:44:08.542Z,58.84
2017-07-09T08:45:04.788Z,58.91
2017-07-09T08:46:01.045Z,59.09
2017-07-09T08:46:57.276Z,59.28
2017-07-09T08:47:53.511Z,59.39
2017-07-09T08:48:49.767Z,59.38
2017-07-09T08:49:46.003Z,59.33
2017-07-09T08:50:42.260Z,59.26
2017-07-09T08:51:38.523Z,59.27
2017-07-09T08:52:34.763Z,59.16
2017-07-09T08:53:30.998Z,59.18
2017-07-09T08:54:27.244Z,59.27
2017-07-09T08:55:23.494Z,59.40
2017-07-09T08:56:19.735Z,59.49
2017-07-09T08:57:15.990Z,59.54
2017-07-09T08:58:12.231Z,59.55
2017-07-09T08:59:08.493Z,59.50
2017-07-09T09:00:04.745Z,59.38
2017-07-09T09:01:00.990Z,59.43
2017-07-09T09:01:57.264Z,59.39
2017-07-09T09:02:53.499Z,59.59
2017-07-09T09:03:49.747Z,59.53
2017-07-09T09:04:45.996Z,59.41
2017-07-09T09:05:42.253Z,59.43
2017-07-09T09:06:38.498Z,59.41
2017-07-09T09:07:34.771Z,59.41
2017-07-09T09:08:31.016Z,59.54
2017-07-09T09:09:27.255Z,59.77
2017-07-09T09:10:23.514Z,60.06
2017-07-09T09:11:19.743Z,60.31
2017-07-09T09:12:15.994Z,60.33
2017-07-09T09:13:12.272Z,60.09
2017-07-09T09:14:08.503Z,60.23
2017-07-09T09:15:04.752Z,60.43
2017-07-09T09:16:00.985Z,60.21
2017-07-09T09:16:57.311Z,59.83
2017-07-09T09:17:53.523Z,59.60
2017-07-09T09:18:49.771Z,59.59
2017-07-09T09:19:46.011Z,59.51
2017-07-09T09:20:42.258Z,59.68
2017-07-09T09:21:38.494Z,59.87
2017-07-09T09:22:34.726Z,59.48
2017-07-09T09:23:30.970Z,59.55
2017-07-09T09:24:27.222Z,59.00
2017-07-09T09:25:23.459Z,58.34
2017-07-09T09:26:19.719Z,57.97
2017-07-09T09:27:15.979Z,58.08
2017-07-09T09:28:12.231Z,57.98
2017-07-09T09:29:08.494Z,57.57
2017-07-09T09:30:04.750Z,56.76
2017-07-09T09:31:00.982Z,56.65
2017-07-09T09:31:57.230Z,55.75
2017-07-09T09:32:53.470Z,54.85
2017-07-09T09:33:49.727Z,54.20
2017-07-09T09:34:45.971Z,53.76
2017-07-09T09:35:42.260Z,54.04
2017-07-09T09:36:38.506Z,54.27
2017-07-09T09:37:34.746Z,54.52
2017-07-09T09:38:30.983Z,54.15
2017-07-09T09:39:27.238Z,53.57
2017-07-09T09:40:23.478Z,53.49
2017-07-09T09:41:19.738Z,53.55
2017-07-09T09:42:15.996Z,53.60
2017-07-09T09:43:12.236Z,53.50
2017-07-09T09:44:08.487Z,53.77
2017-07-09T09:45:04.751Z,53.80
2017-07-09T09:46:01.063Z,53.49
2017-07-09T09:46:57.304Z,52.96
2017-07-09T09:47:53.551Z,52.23
2017-07-09T09:48:49.811Z,51.47
2017-07-09T09:49:46.090Z,51.04
2017-07-09T09:50:42.329Z,50.91
2017-07-09T09:51:38.569Z,50.93
2017-07-09T09:52:34.811Z,50.75
2017-07-09T09:53:31.062Z,50.29
2017-07-09T09:54:27.322Z,49.90
2017-07-09T09:55:23.593Z,49.94
2017-07-09T09:56:23.699Z,49.88
2017-07-09T09:57:21.983Z,49.46
2017-07-09T09:58:24.010Z,48.93
2017-07-09T09:59:20.238Z,48.12
2017-07-09T10:00:26.737Z,47.77
2017-07-09T10:01:25.106Z,47.28
2017-07-09T10:02:21.351Z,46.89
2017-07-09T10:03:17.599Z,46.67
2017-07-09T10:04:13.848Z,46.69
2017-07-09T10:05:10.091Z,46.86
2017-07-09T10:06:06.359Z,46.73
2017-07-09T10:07:02.628Z,46.77
2017-07-09T10:07:58.879Z,46.59
2017-07-09T10:08:55.159Z,46.58
2017-07-09T10:09:51.419Z,46.41
2017-07-09T10:10:47.675Z,46.42
2017-07-09T10:11:43.922Z,46.64
2017-07-09T10:12:40.173Z,46.62
2017-07-09T10:13:36.410Z,46.15
2017-07-09T10:14:32.655Z,45.29
2017-07-09T10:15:28.919Z,44.70
2017-07-09T10:16:25.194Z,44.89
2017-07-09T10:17:21.448Z,44.82
2017-07-09T10:18:17.711Z,44.53
2017-07-09T10:19:14.025Z,44.25
2017-07-09T10:20:10.286Z,44.40
2017-07-09T10:21:06.563Z,44.46
2017-07-09T10:22:02.831Z,44.42
2017-07-09T10:22:59.078Z,44.61
2017-07-09T10:23:55.318Z,44.89
2017-07-09T10:24:51.583Z,44.42
2017-07-09T10:25:47.864Z,44.44
2017-07-09T10:26:44.143Z,44.42
2017-07-09T10:27:40.415Z,44.10
2017-07-09T10:28:36.663Z,44.02
2017-07-09T10:29:33.114Z,44.17
2017-07-09T10:30:29.375Z,44.09
2017-07-09T10:31:25.630Z,43.74
2017-07-09T10:32:21.887Z,43.96
2017-07-09T10:33:18.138Z,44.10
2017-07-09T10:34:14.404Z,44.14
2017-07-09T10:35:10.647Z,44.52
2017-07-09T10:36:06.886Z,45.07
2017-07-09T10:37:03.144Z,45.33
2017-07-09T10:37:59.438Z,45.39
2017-07-09T10:38:55.688Z,45.16
2017-07-09T10:39:51.956Z,44.92
2017-07-09T10:40:48.201Z,44.89
2017-07-09T10:41:44.448Z,44.60
2017-07-09T10:42:40.723Z,43.72
2017-07-09T10:43:36.971Z,43.71
2017-07-09T10:44:33.232Z,43.91
2017-07-09T10:45:29.490Z,43.98
2017-07-09T10:46:25.771Z,44.27
2017-07-09T10:47:22.029Z,44.30
2017-07-09T10:48:27.749Z,44.44
2017-07-09T10:49:26.355Z,44.45
2017-07-09T10:50:31.313Z,44.71
2017-07-09T10:51:36.052Z,44.80
2017-07-09T10:53:49.241Z,45.03
2017-07-09T10:54:54.106Z,45.35
2017-07-09T10:55:52.034Z,45.43
2017-07-09T10:56:49.451Z,45.46
2017-07-09T10:57:46.137Z,45.51
2017-07-09T10:58:43.798Z,45.12
2017-07-09T10:59:42.159Z,44.91
2017-07-09T11:00:41.038Z,45.02
2017-07-09T11:01:38.694Z,45.48
2017-07-09T11:02:36.751Z,45.61
2017-07-09T11:03:34.216Z,45.39
2017-07-09T11:04:33.300Z,44.75
2017-07-09T11:05:30.427Z,45.00
2017-07-09T11:06:26.674Z,44.98
2017-07-09T11:07:22.919Z,44.90
2017-07-09T11:08:19.163Z,44.12
2017-07-09T11:09:15.419Z,43.86
2017-07-09T11:10:11.663Z,43.70
2017-07-09T11:11:07.923Z,43.72
2017-07-09T11:12:04.158Z,43.67
2017-07-09T11:13:00.398Z,43.13
2017-07-09T11:13:56.667Z,43.21
2017-07-09T11:14:52.915Z,43.40
2017-07-09T11:15:49.179Z,42.98
2017-07-09T11:16:45.424Z,42.95
2017-07-09T11:17:41.683Z,43.02
2017-07-09T11:18:37.946Z,42.88
2017-07-09T11:19:34.235Z,42.30
2017-07-09T11:20:30.491Z,42.47
2017-07-09T11:21:26.723Z,42.47
2017-07-09T11:22:22.974Z,42.57
2017-07-09T11:23:19.230Z,42.61
2017-07-09T11:24:15.474Z,42.73
2017-07-09T11:25:11.758Z,42.92
2017-07-09T11:26:08.007Z,42.76
2017-07-09T11:27:04.266Z,42.75
2017-07-09T11:28:00.506Z,42.56
2017-07-09T11:28:56.755Z,42.21
2017-07-09T11:29:53.051Z,42.00
2017-07-09T11:30:49.310Z,42.09
2017-07-09T11:31:45.563Z,42.09
2017-07-09T11:32:41.824Z,42.27
2017-07-09T11:33:38.080Z,42.00
2017-07-09T11:34:34.339Z,41.75
2017-07-09T11:35:30.639Z,41.69
2017-07-09T11:36:26.890Z,41.60
2017-07-09T11:37:23.141Z,41.41
2017-07-09T11:38:19.399Z,41.47
2017-07-09T11:39:15.659Z,41.18
2017-07-09T11:40:11.911Z,40.59
2017-07-09T11:41:08.171Z,40.79
2017-07-09T11:42:04.407Z,41.30
2017-07-09T11:43:00.646Z,41.40
2017-07-09T11:43:56.906Z,41.25
2017-07-09T11:44:53.159Z,41.32
2017-07-09T11:45:49.423Z,41.34
2017-07-09T11:46:45.665Z,41.16
2017-07-09T11:47:41.946Z,41.18
2017-07-09T11:48:38.201Z,41.24
2017-07-09T11:49:34.448Z,41.36
2017-07-09T11:50:30.691Z,41.47
2017-07-09T11:51:26.958Z,41.71
2017-07-09T11:52:23.261Z,41.94
2017-07-09T11:53:19.509Z,41.93
2017-07-09T11:54:15.752Z,41.32
2017-07-09T11:55:11.999Z,41.00
2017-07-09T11:56:08.270Z,40.90
2017-07-09T11:57:04.523Z,41.01
2017-07-09T11:58:00.766Z,41.10
2017-07-09T11:58:57.033Z,41.34
2017-07-09T11:59:53.302Z,41.58
2017-07-09T12:00:49.559Z,41.28
2017-07-09T12:01:45.858Z,41.01
2017-07-09T12:02:42.099Z,40.83
2017-07-09T12:03:38.335Z,40.96
2017-07-09T12:04:34.571Z,41.63
2017-07-09T12:05:30.853Z,42.25
2017-07-09T12:06:27.104Z,42.55
2017-07-09T12:07:23.371Z,42.45